Time;durP1;ratioP1;P1;durP2;ratioP2;P2;SDS_P1;SDS_P2;PMS_P1;PMS_P2;Temp;Humidity;BMP_temperature;BMP_pressure;BME280_temperature;BME280_humidity;BME280_pressure;Samples;Min_cycle;Max_cycle;Signal;HPM_P1;HPM_P2
2021/05/29 00:00:12;;;;;;;2.90;2.07;;;;;;;12.88;67.89;99781.44;5018441;28;20270;-83
2021/05/29 00:02:45;;;;;;;2.40;2.20;;;;;;;12.84;68.00;99770.31;5024142;28;20218;-84
2021/05/29 00:05:14;;;;;;;2.30;1.70;;;;;;;12.89;67.36;99759.69;5041768;28;20635;-83
2021/05/29 00:07:52;;;;;;;2.20;2.00;;;;;;;12.86;67.14;99762.03;5038310;28;20219;-83
2021/05/29 00:10:22;;;;;;;2.23;2.03;;;;;;;12.65;67.80;99745.38;5043166;28;20234;-80
2021/05/29 00:12:49;;;;;;;2.10;1.90;;;;;;;12.66;68.11;99763.16;5038955;28;20222;-83
2021/05/29 00:15:22;;;;;;;1.90;1.80;;;;;;;12.62;68.22;99772.72;5021194;28;20299;-84
2021/05/29 00:17:48;;;;;;;3.03;2.07;;;;;;;12.58;68.85;99768.84;5032645;28;20227;-84
2021/05/29 00:20:15;;;;;;;2.10;1.87;;;;;;;12.60;69.07;99779.34;5022385;28;20251;-81
2021/05/29 00:22:43;;;;;;;2.17;2.00;;;;;;;12.49;69.08;99769.41;5044695;28;20222;-84
2021/05/29 00:25:10;;;;;;;2.00;1.90;;;;;;;12.46;69.47;99767.19;5045464;28;20518;-82
2021/05/29 00:27:38;;;;;;;2.47;2.27;;;;;;;12.31;69.45;99754.16;5017510;28;20251;-83
2021/05/29 00:30:06;;;;;;;2.37;1.97;;;;;;;12.31;69.62;99760.34;5022450;28;20249;-82
2021/05/29 00:32:40;;;;;;;2.30;1.90;;;;;;;12.32;69.96;99764.66;5045864;28;20234;-82
2021/05/29 00:35:18;;;;;;;2.23;1.90;;;;;;;12.23;70.40;99765.19;5047489;28;20235;-82
2021/05/29 00:37:52;;;;;;;2.20;2.10;;;;;;;12.07;70.71;99750.56;5039537;28;20234;-83
2021/05/29 00:40:27;;;;;;;1.90;1.80;;;;;;;11.97;71.00;99739.53;5056172;23;20241;31
2021/05/29 00:43:12;;;;;;;2.37;2.17;;;;;;;12.13;70.77;99765.75;5101038;23;20262;-82
2021/05/29 00:45:44;;;;;;;2.43;2.23;;;;;;;12.13;70.61;99762.25;5039539;23;20294;-82
2021/05/29 00:48:12;;;;;;;2.20;2.03;;;;;;;12.08;71.02;99762.94;4995557;28;20521;-82
2021/05/29 00:50:48;;;;;;;2.27;2.03;;;;;;;12.02;71.06;99761.16;5033934;28;20270;-83
2021/05/29 00:53:19;;;;;;;4.57;2.13;;;;;;;11.99;71.46;99758.88;5062794;23;20234;-82
2021/05/29 00:55:50;;;;;;;2.30;2.10;;;;;;;11.87;72.03;99741.91;5001800;28;20250;-82
2021/05/29 00:58:25;;;;;;;2.57;2.37;;;;;;;11.78;71.96;99737.91;5023811;23;20575;-81
2021/05/29 01:00:58;;;;;;;2.37;2.17;;;;;;;11.93;71.65;99756.31;5011646;28;20326;-82
2021/05/29 01:03:28;;;;;;;2.43;2.23;;;;;;;11.90;71.72;99760.25;5036602;23;20235;-82
2021/05/29 01:05:56;;;;;;;2.33;2.13;;;;;;;11.88;71.83;99756.97;5033016;28;20221;-82
2021/05/29 01:08:29;;;;;;;2.30;2.10;;;;;;;11.82;71.43;99761.38;5031970;28;20218;-82
2021/05/29 01:11:01;;;;;;;2.10;1.90;;;;;;;11.82;71.28;99753.31;5031718;28;20218;-82
2021/05/29 01:13:35;;;;;;;2.23;1.87;;;;;;;11.90;70.46;99765.63;5031490;28;20237;-82
2021/05/29 01:16:12;;;;;;;2.20;2.10;;;;;;;11.83;70.97;99751.47;5013354;28;20218;-81
2021/05/29 01:18:42;;;;;;;2.80;2.10;;;;;;;11.80;71.85;99760.78;5016631;28;20229;-81
2021/05/29 01:21:08;;;;;;;3.40;2.17;;;;;;;11.74;72.19;99763.53;5039573;28;20289;-82
2021/05/29 01:23:38;;;;;;;2.73;2.20;;;;;;;11.79;71.81;99766.38;5046588;28;20226;-82
2021/05/29 01:26:08;;;;;;;3.63;2.10;;;;;;;11.81;71.60;99756.22;5033254;28;20223;-82
2021/05/29 01:28:41;;;;;;;2.07;1.90;;;;;;;11.82;71.74;99758.69;5045884;28;20226;-82
2021/05/29 01:31:09;;;;;;;2.07;1.97;;;;;;;11.86;71.63;99757.19;5038056;28;20249;-81
2021/05/29 01:33:40;;;;;;;2.13;1.93;;;;;;;11.82;70.95;99757.88;5051514;28;20230;-83
2021/05/29 01:36:12;;;;;;;2.37;2.17;;;;;;;11.85;70.88;99771.66;5050495;28;20233;-83
2021/05/29 01:38:43;;;;;;;2.47;2.27;;;;;;;11.79;70.54;99751.09;5049378;28;20241;-80
2021/05/29 01:41:16;;;;;;;2.43;2.23;;;;;;;11.96;70.25;99770.09;5034868;28;20222;-82
2021/05/29 01:43:52;;;;;;;2.20;2.00;;;;;;;12.00;70.20;99775.81;5035914;28;20232;-83
2021/05/29 01:46:22;;;;;;;2.60;2.40;;;;;;;11.89;70.79;99751.41;5051415;28;20233;-81
2021/05/29 01:49:05;;;;;;;2.30;2.10;;;;;;;11.94;70.88;99752.59;5051349;28;20269;-82
2021/05/29 01:51:47;;;;;;;2.53;2.33;;;;;;;11.95;71.08;99768.44;5034663;28;20177;-82
2021/05/29 01:54:21;;;;;;;2.10;1.97;;;;;;;11.81;71.41;99745.50;5051457;28;20222;-82
2021/05/29 01:56:50;;;;;;;2.30;2.10;;;;;;;11.84;71.51;99761.16;4971892;29;20229;-82
2021/05/29 01:59:17;;;;;;;2.30;2.10;;;;;;;11.84;71.06;99753.94;5043987;23;20261;-82
2021/05/29 02:01:46;;;;;;;3.20;2.40;;;;;;;11.87;71.42;99760.72;5049526;28;20234;-81
2021/05/29 02:04:15;;;;;;;2.17;1.80;;;;;;;11.87;72.08;99763.38;5050516;28;20258;-83
2021/05/29 02:06:50;;;;;;;2.37;2.17;;;;;;;11.80;72.23;99758.09;5052381;28;20259;-83
2021/05/29 02:09:20;;;;;;;2.67;2.47;;;;;;;11.97;71.32;99768.22;5071793;28;20251;-82
2021/05/29 02:11:47;;;;;;;2.30;2.10;;;;;;;11.87;70.98;99756.16;5053083;28;20246;-82
2021/05/29 02:14:18;;;;;;;2.30;2.10;;;;;;;11.97;71.01;99763.69;5052840;28;20216;-83
2021/05/29 02:16:47;;;;;;;2.63;2.40;;;;;;;11.99;70.02;99763.47;5036441;28;20286;-83
2021/05/29 02:19:14;;;;;;;2.27;2.10;;;;;;;11.90;70.55;99755.69;5051469;28;21007;-82
2021/05/29 02:21:45;;;;;;;2.33;2.10;;;;;;;11.94;70.51;99755.28;5051761;28;20210;-82
2021/05/29 02:24:17;;;;;;;3.03;2.23;;;;;;;11.97;71.05;99770.91;5051502;28;20277;-82
2021/05/29 02:26:46;;;;;;;2.40;2.20;;;;;;;12.04;70.49;99766.31;5037482;28;20245;-82
2021/05/29 02:29:17;;;;;;;2.60;2.40;;;;;;;12.10;69.63;99763.50;5047117;28;20234;-83
2021/05/29 02:31:51;;;;;;;4.43;2.30;;;;;;;12.03;68.91;99757.44;5052526;28;20245;-82
2021/05/29 02:34:21;;;;;;;2.53;2.30;;;;;;;12.02;68.44;99750.41;5038688;28;20260;-82
2021/05/29 02:36:59;;;;;;;2.67;2.47;;;;;;;12.10;68.32;99754.63;5054806;28;20238;-82
2021/05/29 02:39:27;;;;;;;2.33;2.17;;;;;;;12.13;68.95;99763.06;5056010;28;20231;-82
2021/05/29 02:41:59;;;;;;;2.43;2.23;;;;;;;12.12;68.13;99753.38;5055808;28;20217;-82
2021/05/29 02:44:31;;;;;;;2.53;2.30;;;;;;;12.13;68.84;99771.09;5056202;28;20234;-82
2021/05/29 02:47:00;;;;;;;2.53;2.33;;;;;;;12.16;68.90;99778.72;5050766;28;20230;-82
2021/05/29 02:49:35;;;;;;;3.63;2.27;;;;;;;12.12;69.36;99776.72;5055981;28;20228;-82
2021/05/29 02:52:09;;;;;;;2.60;2.40;;;;;;;12.00;69.73;99773.13;5054212;28;20222;-82
2021/05/29 02:54:49;;;;;;;2.50;2.30;;;;;;;12.08;69.42;99780.91;5055772;28;20238;-83
2021/05/29 02:57:23;;;;;;;3.57;2.27;;;;;;;12.07;69.62;99781.94;5038461;28;20264;-82
2021/05/29 02:59:56;;;;;;;2.80;2.60;;;;;;;12.06;69.39;99775.75;5054701;28;20241;-82
2021/05/29 03:02:25;;;;;;;2.97;2.77;;;;;;;12.09;69.36;99777.16;5054847;28;20297;-83
2021/05/29 03:04:53;;;;;;;2.60;2.40;;;;;;;12.17;68.19;99766.94;5055104;28;20236;-82
2021/05/29 03:07:24;;;;;;;2.70;2.50;;;;;;;12.22;67.96;99767.09;5037938;28;20238;-82
2021/05/29 03:10:01;;;;;;;2.93;2.60;;;;;;;12.22;67.57;99761.72;5054706;28;20237;-83
2021/05/29 03:12:40;;;;;;;2.60;2.40;;;;;;;12.22;67.14;99761.72;5053096;28;20599;-81
2021/05/29 03:15:14;;;;;;;2.57;2.37;;;;;;;12.22;67.16;99760.91;5054821;28;20242;-82
2021/05/29 03:17:43;;;;;;;2.77;2.57;;;;;;;12.31;66.77;99773.78;5054782;28;20645;-83
2021/05/29 03:20:16;;;;;;;2.90;2.70;;;;;;;12.38;66.29;99765.63;5052970;28;20234;-82
2021/05/29 03:22:44;;;;;;;2.90;2.70;;;;;;;12.35;66.45;99764.22;5037285;28;20286;-83
2021/05/29 03:25:15;;;;;;;3.10;2.80;;;;;;;12.35;66.56;99764.22;5047559;28;20226;-82
2021/05/29 03:27:50;;;;;;;2.63;2.43;;;;;;;12.32;66.35;99761.16;5054515;28;20241;-82
2021/05/29 03:30:23;;;;;;;2.80;2.50;;;;;;;12.35;65.95;99766.91;5053671;28;20210;-83
2021/05/29 03:32:58;;;;;;;2.90;2.70;;;;;;;12.40;65.78;99768.09;5051709;28;20242;-82
2021/05/29 03:35:27;;;;;;;2.70;2.50;;;;;;;12.50;65.55;99774.56;5053090;28;20190;-83
2021/05/29 03:37:59;;;;;;;2.90;2.70;;;;;;;12.57;65.23;99780.66;5052113;28;20250;-83
2021/05/29 03:40:26;;;;;;;2.87;2.67;;;;;;;12.56;65.14;99772.81;5021726;28;20234;-83
2021/05/29 03:43:00;;;;;;;3.00;2.80;;;;;;;12.47;64.62;99755.38;5049231;22;20249;-82
2021/05/29 03:45:27;;;;;;;3.87;2.63;;;;;;;12.66;64.79;99786.50;5015944;28;20286;-82
2021/05/29 03:47:55;;;;;;;2.57;2.37;;;;;;;12.70;64.35;99776.94;5016088;28;20234;-83
2021/05/29 03:50:27;;;;;;;3.27;2.73;;;;;;;12.69;64.41;99778.81;5016342;28;20637;-82
2021/05/29 03:53:00;;;;;;;3.50;2.60;;;;;;;12.70;63.99;99785.00;5013856;28;20299;-83
2021/05/29 03:55:33;;;;;;;2.63;2.43;;;;;;;12.69;64.17;99792.25;4983024;28;20261;-82
2021/05/29 03:58:08;;;;;;;2.60;2.40;;;;;;;12.67;64.56;99797.06;4998340;28;20254;-82
2021/05/29 04:00:37;;;;;;;3.17;2.80;;;;;;;12.63;64.07;99790.50;5000316;28;20211;-82
2021/05/29 04:03:08;;;;;;;2.50;2.30;;;;;;;12.54;64.95;99791.88;5014233;28;20255;-82
2021/05/29 04:05:38;;;;;;;2.60;2.40;;;;;;;12.65;64.93;99801.00;5012057;28;20234;-82
2021/05/29 04:08:07;;;;;;;3.07;2.60;;;;;;;12.70;64.37;99801.97;5013357;28;20235;-83
2021/05/29 04:10:37;;;;;;;2.40;2.20;;;;;;;12.75;63.77;99782.44;5014939;28;20246;-80
2021/05/29 04:13:04;;;;;;;3.17;2.60;;;;;;;12.89;63.43;99788.44;5035729;28;20241;-82
2021/05/29 04:15:38;;;;;;;2.40;2.20;;;;;;;13.15;62.31;99801.53;5035487;28;20542;-81
2021/05/29 04:18:07;;;;;;;2.50;2.30;;;;;;;13.50;61.18;99783.50;5052590;28;20230;-81
2021/05/29 04:20:35;;;;;;;2.40;2.30;;;;;;;14.05;58.94;99791.16;5053662;28;20309;-83
2021/05/29 04:23:04;;;;;;;2.30;2.10;;;;;;;14.23;58.50;99799.06;5036168;28;20243;-82
2021/05/29 04:25:50;;;;;;;2.50;2.30;;;;;;;14.25;58.75;99790.75;5032740;28;20561;-82
2021/05/29 04:28:21;;;;;;;2.50;2.30;;;;;;;14.24;58.64;99778.31;5033189;28;20231;-82
2021/05/29 04:30:50;;;;;;;2.33;2.13;;;;;;;14.25;58.45;99794.25;5031856;28;20289;-81
2021/05/29 04:33:20;;;;;;;2.63;2.30;;;;;;;14.16;58.52;99789.50;5017954;28;20254;-83
2021/05/29 04:35:48;;;;;;;2.30;2.10;;;;;;;14.24;57.98;99800.72;5051026;28;20533;-83
2021/05/29 04:38:19;;;;;;;4.20;2.20;;;;;;;14.32;58.53;99816.53;5017889;28;20275;-85
2021/05/29 04:40:50;;;;;;;2.50;2.30;;;;;;;14.39;58.61;99811.81;5001435;28;20580;-84
2021/05/29 04:43:19;;;;;;;2.30;2.10;;;;;;;14.31;58.74;99798.72;4991220;28;20281;-83
2021/05/29 04:45:45;;;;;;;2.43;2.23;;;;;;;14.36;59.32;99792.63;4988239;28;20274;-84
2021/05/29 04:48:12;;;;;;;2.47;2.27;;;;;;;14.45;59.78;99799.28;4987377;28;20228;-84
2021/05/29 04:53:25;;;;;;;2.30;2.10;;;;;;;15.14;57.47;99814.25;5012341;28;20312;-86
2021/05/29 04:55:53;;;;;;;2.73;2.27;;;;;;;15.50;55.47;99812.94;4999277;28;20232;-86
2021/05/29 04:58:20;;;;;;;2.10;1.90;;;;;;;15.76;54.74;99817.69;4979352;28;20227;-83
2021/05/29 05:00:47;;;;;;;2.33;2.13;;;;;;;15.94;53.55;99811.19;5003489;28;20377;-85
2021/05/29 05:03:14;;;;;;;2.30;2.03;;;;;;;16.13;51.93;99801.72;5020394;28;20256;-84
2021/05/29 05:05:41;;;;;;;2.47;1.90;;;;;;;16.07;51.24;99805.41;5012250;28;20232;-85
2021/05/29 05:08:08;;;;;;;4.40;2.07;;;;;;;15.89;51.45;99797.59;4993709;28;20297;-82
2021/05/29 05:10:35;;;;;;;2.83;1.80;;;;;;;15.98;51.19;99804.22;4964159;28;20252;-82
2021/05/29 05:13:03;;;;;;;1.80;1.70;;;;;;;16.18;50.28;99793.66;4984365;28;20229;-83
2021/05/29 05:15:29;;;;;;;2.23;1.80;;;;;;;16.18;50.23;99807.19;4989509;28;20294;-85
2021/05/29 05:17:57;;;;;;;1.90;1.80;;;;;;;15.91;49.89;99795.44;4996657;28;20237;-83
2021/05/29 05:20:23;;;;;;;2.07;1.87;;;;;;;16.20;50.03;99806.91;4979334;28;20357;-86
2021/05/29 05:22:51;;;;;;;2.87;1.87;;;;;;;16.11;49.74;99797.59;4963776;28;20233;-84
2021/05/29 05:25:17;;;;;;;2.00;1.77;;;;;;;16.10;49.13;99798.66;4982508;28;20261;-86
2021/05/29 05:27:44;;;;;;;2.27;1.83;;;;;;;16.04;49.08;99805.09;4998366;28;20558;-84
2021/05/29 05:30:14;;;;;;;2.13;1.90;;;;;;;15.84;49.49;99816.44;5011965;28;20223;-82
2021/05/29 05:32:54;;;;;;;2.30;2.10;;;;;;;15.86;50.22;99812.41;5030001;28;20234;-83
2021/05/29 05:35:25;;;;;;;3.33;2.00;;;;;;;15.93;50.41;99814.13;4990130;28;20238;-85
2021/05/29 05:38:16;;;;;;;2.20;2.00;;;;;;;15.84;50.07;99794.81;5017920;28;20203;-82
2021/05/29 05:41:00;;;;;;;2.40;2.00;;;;;;;15.80;50.51;99807.22;5039542;22;20250;-82
2021/05/29 05:43:49;;;;;;;2.10;2.00;;;;;;;15.65;50.87;99779.97;5057860;23;20220;-81
2021/05/29 05:47:34;;;;;;;2.40;2.20;;;;;;;15.98;50.99;99814.19;5047938;23;20318;-86
2021/05/29 05:50:14;;;;;;;2.93;2.27;;;;;;;16.01;50.03;99802.88;5017826;28;20582;-85
2021/05/29 05:52:41;;;;;;;2.27;2.00;;;;;;;16.01;50.90;99811.81;5025068;28;20534;-86
2021/05/29 05:55:09;;;;;;;2.27;2.07;;;;;;;16.01;50.78;99809.09;5004241;28;20306;-87
2021/05/29 05:57:37;;;;;;;2.37;2.13;;;;;;;15.96;50.15;99811.72;5015257;28;20211;-83
2021/05/29 06:00:28;;;;;;;3.07;1.93;;;;;;;15.94;50.52;99811.19;5031501;28;20591;-86
2021/05/29 06:04:00;;;;;;;2.00;1.90;;;;;;;16.03;50.73;99812.38;5105005;22;20242;-81
2021/05/29 06:07:30;;;;;;;2.20;2.00;;;;;;;15.95;50.17;99801.19;5046983;22;20245;-79
2021/05/29 06:10:22;;;;;;;2.23;2.03;;;;;;;15.88;50.79;99809.47;4990931;28;20274;-81
2021/05/29 06:12:56;;;;;;;3.50;2.10;;;;;;;15.97;50.35;99796.34;5030084;23;20231;-82
2021/05/29 06:21:15;;;;;;;2.47;1.70;;;;;;;16.04;50.08;99799.69;4956004;29;20244;-82
2021/05/29 06:23:55;;;;;;;2.27;1.80;;;;;;;16.42;50.04;99818.53;5012321;28;20671;-85
2021/05/29 06:26:22;;;;;;;1.90;1.80;;;;;;;16.60;49.73;99812.00;5016129;28;20256;-86
2021/05/29 06:28:49;;;;;;;3.13;2.23;;;;;;;16.70;49.32;99807.50;4970518;28;20236;-86
2021/05/29 06:31:16;;;;;;;2.47;2.27;;;;;;;16.88;48.42;99814.47;5008618;28;20721;-85
2021/05/29 06:33:44;;;;;;;2.10;1.90;;;;;;;17.01;47.56;99799.69;4978290;28;20225;-87
2021/05/29 06:36:11;;;;;;;3.00;2.17;;;;;;;16.96;47.05;99805.88;4977826;28;20231;-86
2021/05/29 06:38:38;;;;;;;2.13;1.77;;;;;;;16.85;46.91;99812.25;4992698;28;20252;-87
2021/05/29 06:41:05;;;;;;;1.63;1.53;;;;;;;16.96;47.16;99821.28;5000274;28;20247;-84
2021/05/29 06:43:32;;;;;;;1.77;1.67;;;;;;;16.63;47.85;99819.59;4975059;28;20310;-86
2021/05/29 06:46:03;;;;;;;3.27;2.20;;;;;;;16.35;47.68;99817.09;5010814;28;20259;-84
2021/05/29 06:49:39;;;;;;;2.87;1.80;;;;;;;16.16;47.97;99814.72;5148065;23;20216;-82
2021/05/29 06:52:31;;;;;;;1.97;1.60;;;;;;;16.07;48.41;99821.63;5014398;28;20283;-86
2021/05/29 07:01:44;;;;;;;2.30;2.10;;;;;;;16.36;47.68;99821.44;5178446;23;20227;-79
2021/05/29 07:04:27;;;;;;;2.60;2.40;;;;;;;16.67;47.48;99813.44;5057040;23;20255;-82
2021/05/29 07:07:13;;;;;;;3.93;2.40;;;;;;;16.56;46.92;99818.97;4989849;28;20236;-83
2021/05/29 07:10:13;;;;;;;2.63;2.10;;;;;;;16.62;47.42;99810.66;4997932;28;20210;-80
2021/05/29 07:13:47;;;;;;;2.47;2.27;;;;;;;16.65;46.82;99818.28;4965757;28;20646;-83
2021/05/29 07:16:47;;;;;;;2.60;2.37;;;;;;;16.72;46.92;99799.13;4967279;29;20297;-84
2021/05/29 07:19:14;;;;;;;2.53;2.33;;;;;;;16.80;46.33;99803.28;4949968;29;20236;-83
2021/05/29 07:22:01;;;;;;;2.73;2.30;;;;;;;16.87;46.47;99787.66;5096452;23;20251;-82
2021/05/29 07:24:40;;;;;;;2.30;2.17;;;;;;;16.95;46.18;99809.66;5036251;28;20227;-82
2021/05/29 07:27:30;;;;;;;2.60;2.40;;;;;;;17.06;46.07;99805.16;5043562;28;20235;-86
2021/05/29 07:30:49;;;;;;;2.40;2.13;;;;;;;16.96;45.65;99810.47;5052402;28;20212;-81
2021/05/29 07:34:24;;;;;;;2.77;2.30;;;;;;;16.93;45.99;99806.41;5059512;28;20201;-84
2021/05/29 07:37:15;;;;;;;2.20;1.97;;;;;;;17.13;46.55;99814.69;5038548;28;20219;-87
2021/05/29 07:39:42;;;;;;;2.90;2.00;;;;;;;17.22;46.15;99806.09;5001580;28;20225;-87
2021/05/29 07:42:09;;;;;;;3.27;2.17;;;;;;;17.55;45.12;99806.59;5018396;28;20229;-86
2021/05/29 07:44:37;;;;;;;2.10;2.00;;;;;;;17.43;44.56;99800.56;5000181;28;20632;-88
2021/05/29 07:47:04;;;;;;;2.03;1.83;;;;;;;17.42;44.64;99804.34;5016535;28;20280;-88
2021/05/29 07:49:30;;;;;;;2.40;1.90;;;;;;;17.28;45.02;99803.16;5001538;28;20219;-84
2021/05/29 07:52:13;;;;;;;4.00;2.00;;;;;;;17.18;43.60;99816.59;5006042;28;20256;-85
2021/05/29 07:54:40;;;;;;;3.00;1.77;;;;;;;17.43;44.01;99800.56;5037097;28;20231;-88
2021/05/29 07:57:09;;;;;;;2.17;1.90;;;;;;;17.55;44.32;99803.06;5000823;28;20616;-87
2021/05/29 07:59:37;;;;;;;2.20;1.70;;;;;;;17.64;43.45;99814.28;5001838;28;20224;-86
2021/05/29 08:02:04;;;;;;;3.20;1.57;;;;;;;17.59;43.29;99802.31;5035753;28;20229;-82
2021/05/29 08:04:32;;;;;;;1.67;1.57;;;;;;;17.64;44.55;99798.03;5014398;28;20247;-85
2021/05/29 08:06:59;;;;;;;3.13;1.70;;;;;;;17.90;42.88;99805.22;5017001;28;20558;-87
2021/05/29 08:09:26;;;;;;;1.77;1.67;;;;;;;17.75;42.06;99795.13;5002741;28;20244;-87
2021/05/29 08:11:53;;;;;;;2.27;1.70;;;;;;;17.92;43.13;99820.13;4999362;28;20250;-88
2021/05/29 08:14:20;;;;;;;1.60;1.47;;;;;;;17.79;42.16;99796.22;4999433;28;20239;-85
2021/05/29 08:16:47;;;;;;;1.57;1.47;;;;;;;18.10;42.64;99809.94;5019502;28;20222;-86
2021/05/29 08:19:14;;;;;;;1.70;1.50;;;;;;;18.33;42.36;99806.78;5002512;28;20241;-84
2021/05/29 08:21:51;;;;;;;1.67;1.57;;;;;;;18.04;42.41;99809.09;5019031;28;20222;-83
2021/05/29 08:24:18;;;;;;;1.53;1.43;;;;;;;18.61;41.66;99813.69;5018606;28;20307;-83
2021/05/29 08:26:45;;;;;;;2.70;1.70;;;;;;;18.69;42.00;99803.13;5007872;28;20535;-85
2021/05/29 08:29:14;;;;;;;1.50;1.40;;;;;;;18.75;41.88;99801.22;5018435;28;20253;-85
2021/05/29 08:31:43;;;;;;;2.33;1.60;;;;;;;18.71;41.38;99811.00;5003143;28;20241;-87
2021/05/29 08:34:10;;;;;;;2.00;1.50;;;;;;;18.11;40.57;99800.69;5002920;28;20233;-88
2021/05/29 08:36:37;;;;;;;2.83;1.60;;;;;;;18.59;40.15;99799.56;5019448;28;20226;-85
2021/05/29 08:39:05;;;;;;;1.83;1.23;;;;;;;18.71;41.27;99806.34;5002506;28;20661;-88
2021/05/29 08:41:32;;;;;;;1.50;1.40;;;;;;;18.61;40.50;99809.06;5002911;28;20559;-87
2021/05/29 08:43:59;;;;;;;3.40;1.87;;;;;;;18.55;41.03;99809.31;4987029;28;20658;-85
2021/05/29 08:46:26;;;;;;;2.57;1.70;;;;;;;18.80;41.20;99799.31;5019068;28;20284;-85
2021/05/29 08:48:53;;;;;;;2.23;1.50;;;;;;;18.90;40.48;99790.38;5002941;28;20272;-88
2021/05/29 08:51:21;;;;;;;1.83;1.53;;;;;;;18.94;40.45;99796.91;5018716;28;20642;-88
2021/05/29 08:53:51;;;;;;;2.50;1.93;;;;;;;18.81;39.55;99789.28;5002488;28;20584;-85
2021/05/29 08:56:21;;;;;;;1.60;1.50;;;;;;;19.06;39.68;99794.75;5018053;28;20234;-86
2021/05/29 08:58:49;;;;;;;2.13;1.70;;;;;;;19.30;38.69;99801.28;4987001;28;20230;-85
2021/05/29 09:01:17;;;;;;;2.77;1.50;;;;;;;19.68;38.12;99794.47;5002606;28;20645;-88
2021/05/29 09:04:03;;;;;;;3.97;1.80;;;;;;;20.20;38.40;99793.22;5019089;28;20237;-88
2021/05/29 09:06:30;;;;;;;1.97;1.50;;;;;;;20.45;37.59;99798.53;5018556;28;20535;-87
2021/05/29 09:08:59;;;;;;;1.47;1.37;;;;;;;20.27;36.41;99796.44;5002035;28;20304;-88
2021/05/29 09:11:49;;;;;;;2.13;1.60;;;;;;;20.26;35.68;99794.78;4983347;28;20237;-86
2021/05/29 09:16:59;;;;;;;1.60;1.50;;;;;;;20.04;37.34;99795.16;5036145;28;20230;-87
2021/05/29 09:19:26;;;;;;;1.50;1.40;;;;;;;20.36;35.91;99788.53;5016853;28;20695;-87
2021/05/29 09:21:53;;;;;;;1.63;1.40;;;;;;;20.42;36.03;99790.13;5000761;28;20233;-86
2021/05/29 09:24:20;;;;;;;1.97;1.73;;;;;;;20.41;36.04;99786.59;5001076;28;20233;-88
2021/05/29 09:26:54;;;;;;;1.50;1.40;;;;;;;20.44;35.92;99788.75;4985769;28;20313;-88
2021/05/29 09:29:22;;;;;;;1.73;1.60;;;;;;;20.69;35.43;99795.97;4982645;28;20321;-87
2021/05/29 09:32:18;;;;;;;1.93;1.60;;;;;;;20.78;35.22;99793.44;4982395;28;20292;-88
2021/05/29 09:34:52;;;;;;;2.20;1.50;;;;;;;20.35;35.33;99787.72;4988202;28;20230;-87
2021/05/29 09:37:23;;;;;;;2.90;1.73;;;;;;;20.09;37.36;99783.44;5016768;28;20342;-87
2021/05/29 09:39:55;;;;;;;1.50;1.40;;;;;;;20.17;36.06;99786.41;5001353;28;20264;-88
2021/05/29 09:42:30;;;;;;;1.60;1.50;;;;;;;19.70;36.88;99759.66;5000158;28;20230;-88
2021/05/29 09:44:57;;;;;;;1.30;1.20;;;;;;;19.20;37.51;99773.28;5015219;28;20240;-88
2021/05/29 09:47:25;;;;;;;1.50;1.40;;;;;;;19.42;36.66;99779.22;4998943;28;20291;-88
2021/05/29 09:49:53;;;;;;;1.43;1.33;;;;;;;20.05;35.48;99779.66;5001130;28;20226;-88
2021/05/29 09:52:27;;;;;;;1.67;1.20;;;;;;;20.00;36.07;99776.97;5000838;28;20253;-88
2021/05/29 09:55:00;;;;;;;1.73;1.33;;;;;;;20.29;34.93;99767.06;5017455;28;20318;-88
2021/05/29 09:57:27;;;;;;;1.33;1.23;;;;;;;20.21;35.03;99763.00;5001760;28;20233;-87
2021/05/29 09:59:59;;;;;;;1.70;1.60;;;;;;;20.80;35.44;99770.31;5017495;28;20230;-87
2021/05/29 10:02:27;;;;;;;1.63;1.43;;;;;;;21.02;34.41;99769.88;5000980;28;20237;-87
2021/05/29 10:04:55;;;;;;;1.43;1.33;;;;;;;20.84;34.12;99767.81;4998982;28;20230;-86
2021/05/29 10:07:24;;;;;;;2.30;1.70;;;;;;;20.55;33.45;99770.47;5013567;28;20258;-86
2021/05/29 10:09:52;;;;;;;2.07;1.40;;;;;;;20.57;33.98;99765.56;5000034;28;20282;-87
2021/05/29 10:12:19;;;;;;;1.30;1.20;;;;;;;20.40;33.78;99760.47;5000612;28;20236;-87
2021/05/29 10:14:46;;;;;;;1.60;1.20;;;;;;;20.38;32.92;99748.25;5017469;28;20222;-87
2021/05/29 10:17:14;;;;;;;2.37;1.23;;;;;;;19.96;33.81;99765.00;5001442;28;20535;-85
2021/05/29 10:19:43;;;;;;;1.30;1.20;;;;;;;20.18;34.77;99755.41;4997565;28;20627;-88
2021/05/29 10:22:11;;;;;;;1.33;1.23;;;;;;;20.54;34.39;99769.66;5013298;28;20242;-88
2021/05/29 10:24:39;;;;;;;1.50;1.17;;;;;;;20.77;32.81;99753.69;5045607;28;20253;-83
2021/05/29 10:27:11;;;;;;;1.33;1.23;;;;;;;21.12;33.01;99753.44;4999330;28;20226;-86
2021/05/29 10:29:39;;;;;;;1.10;1.10;;;;;;;21.89;32.45;99755.13;5001138;28;20226;-84
2021/05/29 10:32:14;;;;;;;1.60;1.30;;;;;;;21.49;32.71;99752.84;4999962;28;20341;-86
2021/05/29 10:34:58;;;;;;;1.40;1.30;;;;;;;21.16;32.94;99756.44;5017427;28;20223;-88
2021/05/29 10:37:41;;;;;;;1.93;1.30;;;;;;;21.19;34.37;99759.38;5034360;28;20249;-87
2021/05/29 10:40:17;;;;;;;1.13;1.03;;;;;;;20.60;34.62;99749.47;4997984;28;20312;-85
2021/05/29 10:42:44;;;;;;;1.30;1.20;;;;;;;20.59;34.64;99766.06;4987442;28;20227;-87
2021/05/29 10:45:17;;;;;;;3.87;3.57;;;;;;;20.76;35.32;99757.53;5000927;28;20237;-87
2021/05/29 10:48:05;;;;;;;1.97;1.80;;;;;;;20.82;34.40;99753.66;5001155;28;20229;-87
2021/05/29 10:53:54;;;;;;;1.53;1.40;;;;;;;21.45;32.27;99749.06;5018382;28;20230;-87
2021/05/29 10:56:22;;;;;;;2.27;1.37;;;;;;;21.24;33.50;99770.25;5001570;28;20535;-87
2021/05/29 10:59:12;;;;;;;2.00;1.20;;;;;;;21.09;33.60;99741.19;5020473;28;20364;-87
2021/05/29 11:01:44;;;;;;;1.40;1.30;;;;;;;20.55;33.47;99760.38;5020650;28;20233;-88
2021/05/29 11:04:11;;;;;;;2.20;1.33;;;;;;;19.97;33.57;99770.16;5037762;28;20245;-85
2021/05/29 11:06:41;;;;;;;1.70;1.30;;;;;;;19.58;35.07;99758.31;5038053;28;20228;-85
2021/05/29 11:09:08;;;;;;;1.93;1.40;;;;;;;19.60;35.88;99767.00;5004493;28;20222;-85
2021/05/29 11:14:15;;;;;;;3.30;1.50;;;;;;;19.91;34.96;99774.00;5018101;28;20533;-88
2021/05/29 11:16:45;;;;;;;2.20;1.53;;;;;;;20.11;34.34;99770.41;5019976;28;20248;-88
2021/05/29 11:19:12;;;;;;;3.67;1.30;;;;;;;20.13;34.29;99771.75;5037915;28;20225;-87
2021/05/29 11:22:13;;;;;;;4.43;1.57;;;;;;;20.38;34.17;99770.03;5020716;28;20253;-85
2021/05/29 11:24:44;;;;;;;2.07;1.33;;;;;;;20.76;33.30;99763.00;5037395;28;20229;-87
2021/05/29 11:27:15;;;;;;;1.93;1.50;;;;;;;20.94;31.36;99763.13;5004541;28;20240;-87
2021/05/29 11:29:48;;;;;;;1.53;1.40;;;;;;;20.79;32.21;99765.13;5020686;28;20288;-84
2021/05/29 11:32:39;;;;;;;1.40;1.30;;;;;;;20.28;32.43;99753.72;5020609;28;20244;-87
2021/05/29 11:35:30;;;;;;;1.57;1.43;;;;;;;20.32;33.55;99762.97;5006385;28;20312;-87
2021/05/29 11:38:00;;;;;;;3.03;1.60;;;;;;;20.38;33.57;99754.50;5016419;28;20226;-85
2021/05/29 11:40:50;;;;;;;4.27;1.70;;;;;;;20.75;33.36;99755.91;5037843;28;20284;-87
2021/05/29 11:43:40;;;;;;;1.73;1.60;;;;;;;21.29;33.16;99751.13;5020807;28;20233;-86
2021/05/29 11:46:29;;;;;;;1.50;1.40;;;;;;;21.04;31.79;99757.56;4988166;28;20235;-87
2021/05/29 11:49:04;;;;;;;3.17;1.40;;;;;;;20.85;32.36;99747.66;4991692;28;20226;-88
2021/05/29 11:51:36;;;;;;;3.47;1.70;;;;;;;21.21;32.89;99768.09;5003987;28;20691;-87
2021/05/29 11:54:19;;;;;;;1.60;1.50;;;;;;;20.89;33.16;99746.00;5004167;28;20325;-86
2021/05/29 11:56:49;;;;;;;1.77;1.50;;;;;;;21.40;31.92;99760.03;4984979;28;20227;-84
2021/05/29 11:59:22;;;;;;;2.20;2.00;;;;;;;21.25;32.43;99744.63;5003458;28;20226;-87
2021/05/29 12:01:54;;;;;;;1.60;1.50;;;;;;;21.97;32.20;99751.00;5000589;28;20261;-86
2021/05/29 12:04:24;;;;;;;1.57;1.47;;;;;;;21.92;31.67;99749.09;4999209;28;20247;-87
2021/05/29 12:06:55;;;;;;;3.90;1.73;;;;;;;22.77;30.34;99742.78;4984286;28;20559;-87
2021/05/29 12:09:36;;;;;;;1.80;1.47;;;;;;;22.65;29.60;99748.69;4988673;28;20309;-85
2021/05/29 12:12:06;;;;;;;1.67;1.50;;;;;;;22.46;30.09;99745.13;4999914;28;20231;-84
2021/05/29 12:14:51;;;;;;;1.80;1.70;;;;;;;22.19;30.08;99726.69;5005190;28;20322;-86
2021/05/29 12:17:18;;;;;;;2.00;1.50;;;;;;;22.50;30.54;99748.06;5037431;28;20621;-85
2021/05/29 12:19:51;;;;;;;1.93;1.80;;;;;;;22.77;30.47;99738.13;5003288;28;20243;-85
2021/05/29 12:22:23;;;;;;;2.63;1.63;;;;;;;22.71;30.63;99753.00;5003013;28;20535;-87
2021/05/29 12:24:59;;;;;;;1.70;1.60;;;;;;;22.21;30.23;99738.09;5019787;28;20387;-86
2021/05/29 12:27:29;;;;;;;1.73;1.63;;;;;;;22.51;30.76;99742.34;5036634;28;20626;-85